Stoneboro, Pennsylvania
Current Conditions -  °F | °C
As of 9:15 PM on Monday 22 Dec 2014 (Local Time) from KFKL Reporting Station
Overcast Overcast  
Wind Chill: 22°   Ceiling: 4300
Heat Index: 32°   Visibility: 10mi
Dew Point: 25°   Wind: 14mph
Humidity: 75%   Direction: 100°E
Pressure: 29.99"   Gusts: 20mph
Location:  41.34°N, 80.11°W
Report Text: KFKL 230215Z AUTO 10012G17KT 10SM SCT013 OVC043 00/M04 A2999 RMK AO1
Loading
Personal Weather Stations






























Interactive Weather Map New forecast layout! Learn more

10-Day Weather Forecast

Advertisements
Track Severe Weather on mobile